Terminal Aerodrome Forecast
Issued by NWS

Home | Current Version | Previous Version | Graphics & Text | Print | Product List | Glossary On
Versions: 1 2 3 4 5 6 7 8 9 10 11 12 13 14 15 16
000
FTUS43 KGRB 190356 AAA
TAFMTW
TAF AMD
KMTW 190356Z 1904/1924 28003KT P6SM SCT040 BKN070
      TEMPO 1904/1908 3SM -TSRA BKN035CB
     FM190900 35005KT P6SM BKN100
     FM191500 01006KT P6SM SCT040
     FM192000 12006KT P6SM SKC=

USA.gov is the U.S. government's official web portal to all federal, state and local government web resources and services.